Time;durP1;ratioP1;P1;durP2;ratioP2;P2;SDS_P1;SDS_P2;PMS_P1;PMS_P2;Temp;Humidity;BMP_temperature;BMP_pressure;BME280_temperature;BME280_humidity;BME280_pressure;Samples;Min_cycle;Max_cycle;Signal;HPM_P1;HPM_P2
2021/01/14 00:08:28;;;;;;;1999.90;999.90;;;4.10;99.90;;;;;;6234191;22;20019;-96
2021/01/14 00:25:34;;;;;;;1999.90;999.90;;;4.00;99.90;;;;;;6269757;22;20047;-95
2021/01/14 00:28:16;;;;;;;1999.90;999.90;;;4.00;99.90;;;;;;6267315;23;20042;-96
2021/01/14 00:30:54;;;;;;;1999.90;999.90;;;4.00;99.90;;;;;;6267315;23;20032;-96
2021/01/14 00:33:30;;;;;;;1999.90;999.90;;;4.00;99.90;;;;;;6265480;23;20086;-96
2021/01/14 00:39:14;;;;;;;1999.90;999.90;;;3.90;99.90;;;;;;6270714;23;20042;-96
2021/01/14 01:59:59;;;;;;;1999.90;999.90;;;3.60;99.90;;;;;;6264796;22;20024;-95
2021/01/14 02:14:28;;;;;;;1999.90;999.90;;;3.50;99.90;;;;;;6268527;22;20048;-96
2021/01/14 02:17:08;;;;;;;1999.90;999.90;;;3.50;99.90;;;;;;6266388;23;20012;-96
2021/01/14 02:19:54;;;;;;;1999.90;999.90;;;3.50;99.90;;;;;;6265205;23;20027;-96
2021/01/14 02:22:44;;;;;;;1999.90;999.90;;;3.50;99.90;;;;;;6268397;23;20020;-96
2021/01/14 02:25:23;;;;;;;1999.90;999.90;;;3.50;99.90;;;;;;6266659;23;20003;-96
2021/01/14 02:28:05;;;;;;;1999.90;999.90;;;3.40;99.90;;;;;;6269129;23;20016;-96
2021/01/14 02:30:52;;;;;;;1999.90;999.90;;;3.40;99.90;;;;;;6269089;23;20026;-95
2021/01/14 02:33:27;;;;;;;1999.90;999.90;;;3.40;99.90;;;;;;6268921;23;20031;-96
2021/01/14 02:36:15;;;;;;;1999.90;999.90;;;3.40;99.90;;;;;;6269093;23;20024;-96
2021/01/14 02:38:52;;;;;;;1999.90;999.90;;;3.40;99.90;;;;;;6267546;23;20031;-96
2021/01/14 02:41:36;;;;;;;1999.90;999.90;;;3.30;99.90;;;;;;6267579;23;20051;-96
2021/01/14 02:44:13;;;;;;;1999.90;999.90;;;3.40;99.90;;;;;;6263532;23;20020;-95
2021/01/14 02:46:44;;;;;;;1999.90;999.90;;;3.40;99.90;;;;;;6258301;23;20421;-95
2021/01/14 02:49:13;;;;;;;1999.90;999.90;;;3.30;99.90;;;;;;6257282;23;20020;-96
2021/01/14 02:51:49;;;;;;;1999.90;999.90;;;3.30;99.90;;;;;;6259750;23;20020;-96
2021/01/14 02:54:25;;;;;;;1999.90;999.90;;;3.30;99.90;;;;;;6261285;23;20044;-95
2021/01/14 02:56:57;;;;;;;1999.90;999.90;;;3.30;99.90;;;;;;6260497;23;20032;-96
2021/01/14 02:59:28;;;;;;;1999.90;999.90;;;3.30;99.90;;;;;;6260686;23;20020;-96
2021/01/14 03:02:01;;;;;;;1999.90;999.90;;;3.30;99.90;;;;;;6262570;23;20020;-96
2021/01/14 03:04:32;;;;;;;1999.90;999.90;;;3.30;99.90;;;;;;6263537;23;20020;-96
2021/01/14 03:07:08;;;;;;;1999.90;999.90;;;3.30;99.90;;;;;;6264261;23;20317;-96
2021/01/14 03:09:40;;;;;;;1999.90;999.90;;;3.30;99.90;;;;;;6257537;23;20028;-96
2021/01/14 03:12:09;;;;;;;1999.90;999.90;;;3.30;99.90;;;;;;6258470;23;20024;-96
2021/01/14 03:14:41;;;;;;;1999.90;999.90;;;3.20;99.90;;;;;;6258662;23;20031;-96
2021/01/14 03:17:26;;;;;;;1999.90;999.90;;;3.20;99.90;;;;;;6258329;23;20012;-96
2021/01/14 03:19:57;;;;;;;1999.90;999.90;;;3.20;99.90;;;;;;6259499;23;20095;-96
2021/01/14 03:22:40;;;;;;;1999.90;999.90;;;3.10;99.90;;;;;;6256410;23;20020;-95
2021/01/14 03:25:13;;;;;;;1999.90;999.90;;;3.10;99.90;;;;;;6257089;23;20028;-96
2021/01/14 03:27:47;;;;;;;1999.90;999.90;;;3.10;99.90;;;;;;6261691;23;20095;-96
2021/01/14 03:30:20;;;;;;;;;;;3.10;99.90;;;;;;6263925;23;20024;-95
2021/01/14 03:32:55;;;;;;;1999.90;999.90;;;3.10;99.90;;;;;;6259696;23;19981;-95
2021/01/14 03:35:37;;;;;;;1999.90;999.90;;;3.00;99.90;;;;;;6256941;22;20099;-95
2021/01/14 03:38:14;;;;;;;1999.90;999.90;;;3.00;99.90;;;;;;6257178;23;20013;-96
2021/01/14 03:40:42;;;;;;;1999.90;999.90;;;3.00;99.90;;;;;;6258264;23;20455;-96
2021/01/14 03:43:09;;;;;;;1999.90;999.90;;;2.90;99.90;;;;;;6255254;23;20024;-94
2021/01/14 03:45:40;;;;;;;1999.90;999.90;;;2.90;99.90;;;;;;6253906;23;20444;-95
2021/01/14 03:48:16;;;;;;;1999.90;999.90;;;2.90;99.90;;;;;;6251006;23;20111;-96
2021/01/14 03:50:51;;;;;;;1999.90;999.90;;;2.90;99.90;;;;;;6257294;23;20016;-95
2021/01/14 03:53:28;;;;;;;1999.90;999.90;;;2.80;99.90;;;;;;6260096;23;20091;-96
2021/01/14 03:55:56;;;;;;;1999.90;999.90;;;2.80;99.90;;;;;;6259923;23;20024;-96
2021/01/14 03:58:25;;;;;;;1999.90;999.90;;;2.70;99.90;;;;;;6258030;23;20063;-96
2021/01/14 04:01:03;;;;;;;1999.90;999.90;;;2.70;99.90;;;;;;6259073;23;20027;-96
2021/01/14 04:03:44;;;;;;;1999.90;999.90;;;2.70;99.90;;;;;;6256949;23;20020;-96
2021/01/14 04:06:17;;;;;;;1999.90;999.90;;;2.70;99.90;;;;;;6256904;23;20020;-96
2021/01/14 04:08:44;;;;;;;1999.90;999.90;;;2.70;99.90;;;;;;6255059;23;20087;-96
2021/01/14 04:11:15;;;;;;;1999.90;999.90;;;2.60;99.90;;;;;;6254264;23;20027;-95
2021/01/14 04:14:08;;;;;;;1999.90;999.90;;;2.60;99.90;;;;;;6231295;23;20044;-96
2021/01/14 04:16:45;;;;;;;1999.90;999.90;;;2.60;99.90;;;;;;6252449;23;20432;-96
2021/01/14 04:19:14;;;;;;;1999.90;999.90;;;2.50;99.90;;;;;;6251768;23;20020;-96
2021/01/14 04:21:42;;;;;;;1999.90;999.90;;;2.50;99.90;;;;;;6251590;23;20027;-96
2021/01/14 04:24:10;;;;;;;1999.90;999.90;;;2.50;99.90;;;;;;6253886;23;20047;-96
2021/01/14 04:26:40;;;;;;;1999.90;999.90;;;2.50;99.90;;;;;;6255976;23;20043;-96
2021/01/14 04:29:12;;;;;;;1999.90;999.90;;;2.50;99.90;;;;;;6255361;23;20090;-96
2021/01/14 04:31:42;;;;;;;1999.90;999.90;;;2.40;99.90;;;;;;6255803;23;20383;-96
2021/01/14 04:34:13;;;;;;;1999.90;999.90;;;2.40;99.90;;;;;;6260145;23;20020;-95
2021/01/14 04:36:41;;;;;;;1999.90;999.90;;;2.40;99.90;;;;;;6260367;23;20016;-95
2021/01/14 04:39:09;;;;;;;1999.90;999.90;;;2.40;99.90;;;;;;6253448;23;20023;-96
2021/01/14 04:41:47;;;;;;;1999.90;999.90;;;2.40;99.90;;;;;;6251304;23;20120;-94
2021/01/14 04:44:15;;;;;;;1999.90;999.90;;;2.30;99.90;;;;;;6248999;23;20024;-94
2021/01/14 04:46:49;;;;;;;1999.90;999.90;;;2.30;99.90;;;;;;6248580;23;20016;-95
2021/01/14 04:49:18;;;;;;;1999.90;999.90;;;2.40;99.90;;;;;;6249748;23;20016;-94
2021/01/14 04:51:46;;;;;;;1999.90;999.90;;;2.30;99.90;;;;;;6249115;23;20020;-95
2021/01/14 04:54:20;;;;;;;1999.90;999.90;;;2.30;99.90;;;;;;6249222;23;20028;-94
2021/01/14 04:56:47;;;;;;;1999.90;999.90;;;2.30;99.90;;;;;;6249218;23;20058;-95
2021/01/14 04:59:19;;;;;;;1999.90;999.90;;;2.30;99.90;;;;;;6253786;23;20016;-95
2021/01/14 05:01:52;;;;;;;1999.90;999.90;;;2.30;99.90;;;;;;6251901;23;20042;-95
2021/01/14 05:04:22;;;;;;;1999.90;999.90;;;2.30;99.90;;;;;;6249086;23;20035;-95
2021/01/14 05:12:42;;;;;;;1999.90;999.90;;;2.30;99.90;;;;;;6256550;22;20024;-96
2021/01/14 05:15:15;;;;;;;1999.90;999.90;;;2.20;99.90;;;;;;6256127;23;20020;-96
2021/01/14 05:17:44;;;;;;;1999.90;999.90;;;2.20;99.90;;;;;;6253907;23;20012;-96
2021/01/14 05:20:18;;;;;;;1999.90;999.90;;;2.30;99.90;;;;;;6253651;23;20343;-96
2021/01/14 05:22:55;;;;;;;1999.90;999.90;;;2.20;99.90;;;;;;6254158;23;20051;-96
2021/01/14 05:25:24;;;;;;;1999.90;999.90;;;2.20;99.90;;;;;;6252606;23;20036;-96
2021/01/14 05:27:52;;;;;;;1999.90;999.90;;;2.20;99.90;;;;;;6251771;23;20087;-96
2021/01/14 05:30:22;;;;;;;1999.90;999.90;;;2.10;99.90;;;;;;6250663;23;20023;-96
2021/01/14 05:32:55;;;;;;;1999.90;999.90;;;2.20;99.90;;;;;;6250658;23;20035;-96
2021/01/14 05:35:33;;;;;;;1999.90;999.90;;;2.20;99.90;;;;;;6251344;23;20027;-96
2021/01/14 05:38:03;;;;;;;1999.90;999.90;;;2.10;99.90;;;;;;6251347;23;20012;-96
2021/01/14 05:40:31;;;;;;;1999.90;999.90;;;2.10;99.90;;;;;;6250655;23;20072;-95
2021/01/14 05:43:18;;;;;;;1999.90;999.90;;;2.10;99.90;;;;;;6249650;23;20027;-96
2021/01/14 05:45:48;;;;;;;1999.90;999.90;;;2.10;99.90;;;;;;6251701;23;20042;-96
2021/01/14 05:48:18;;;;;;;1999.90;999.90;;;2.00;99.90;;;;;;6249588;23;20020;-96
2021/01/14 05:50:47;;;;;;;1999.90;999.90;;;2.00;99.90;;;;;;6249890;23;20026;-96
2021/01/14 05:53:19;;;;;;;1999.90;999.90;;;2.00;99.90;;;;;;6251499;23;20020;-96
2021/01/14 05:55:51;;;;;;;1999.90;999.90;;;1.90;99.90;;;;;;6249425;23;20024;-94
2021/01/14 05:58:21;;;;;;;1999.90;999.90;;;1.90;99.90;;;;;;6247306;23;20071;-94
2021/01/14 06:00:49;;;;;;;1999.90;999.90;;;1.90;99.90;;;;;;6247539;23;20024;-94
2021/01/14 06:03:27;;;;;;;1999.90;999.90;;;1.90;99.90;;;;;;6247715;23;20020;-94
2021/01/14 06:05:55;;;;;;;1999.90;999.90;;;1.90;99.90;;;;;;6247262;23;20036;-94
2021/01/14 06:08:25;;;;;;;1999.90;999.90;;;1.80;99.90;;;;;;6247844;23;20016;-94
2021/01/14 06:10:56;;;;;;;1999.90;999.90;;;1.80;99.90;;;;;;6247931;23;20020;-93
2021/01/14 06:13:39;;;;;;;1999.90;999.90;;;1.80;99.90;;;;;;6248004;23;20320;-94
2021/01/14 06:16:08;;;;;;;1999.90;999.90;;;1.80;99.90;;;;;;6247808;23;20016;-95
2021/01/14 06:18:37;;;;;;;1999.90;999.90;;;1.80;99.90;;;;;;6247308;23;20018;-94
2021/01/14 06:21:05;;;;;;;1999.90;999.90;;;1.80;99.90;;;;;;6247714;23;20043;-95
2021/01/14 06:23:45;;;;;;;1999.90;999.90;;;1.80;99.90;;;;;;6247723;23;20016;-95
2021/01/14 06:26:27;;;;;;;1999.90;999.90;;;1.70;99.90;;;;;;6247818;23;20022;-95
2021/01/14 06:28:56;;;;;;;1999.90;999.90;;;1.70;99.90;;;;;;6247704;23;20043;-94
2021/01/14 06:31:28;;;;;;;1999.90;999.90;;;1.70;99.90;;;;;;6247577;23;20020;-95
2021/01/14 06:33:58;;;;;;;1999.90;999.90;;;1.70;99.90;;;;;;6247485;23;20098;-94
2021/01/14 06:36:33;;;;;;;1999.90;999.90;;;1.70;99.90;;;;;;6247855;23;20054;-94
2021/01/14 06:39:11;;;;;;;1999.90;999.90;;;1.70;99.90;;;;;;6247034;23;20026;-94
2021/01/14 06:41:43;;;;;;;1999.90;999.90;;;1.70;99.90;;;;;;6247287;23;20023;-94
2021/01/14 06:44:12;;;;;;;1999.90;999.90;;;1.70;99.90;;;;;;6248082;23;20075;-95
2021/01/14 06:46:40;;;;;;;1999.90;999.90;;;1.70;99.90;;;;;;6247323;23;20054;-94
2021/01/14 06:49:15;;;;;;;1999.90;999.90;;;1.70;99.90;;;;;;6246995;23;20023;-95
2021/01/14 06:51:54;;;;;;;1999.90;999.90;;;1.70;99.90;;;;;;6247091;23;20103;-95
2021/01/14 06:54:27;;;;;;;1999.90;999.90;;;1.70;99.90;;;;;;6248122;23;20016;-94
2021/01/14 06:57:05;;;;;;;1999.90;999.90;;;1.70;99.90;;;;;;6247219;23;20012;-95
2021/01/14 06:59:38;;;;;;;1999.90;999.90;;;1.70;99.90;;;;;;6246856;23;20020;-94
2021/01/14 07:02:43;;;;;;;1999.90;999.90;;;1.70;99.90;;;;;;6247210;23;20091;-94
2021/01/14 07:05:19;;;;;;;1999.90;999.90;;;1.70;99.90;;;;;;6204250;23;20027;-94
2021/01/14 07:07:51;;;;;;;1999.90;999.90;;;1.70;99.90;;;;;;6247429;23;20502;-95
2021/01/14 07:10:22;;;;;;;1999.90;999.90;;;1.70;99.90;;;;;;6246866;23;20070;-94
2021/01/14 07:12:53;;;;;;;1999.90;999.90;;;1.80;99.90;;;;;;6247564;23;20021;-95
2021/01/14 07:15:25;;;;;;;1999.90;999.90;;;1.70;99.90;;;;;;6247010;23;20016;-94
2021/01/14 07:18:05;;;;;;;1999.90;999.90;;;1.70;99.90;;;;;;6247175;23;20428;-95
2021/01/14 07:20:33;;;;;;;1999.90;999.90;;;1.80;99.90;;;;;;6247927;23;20020;-94
2021/01/14 07:23:17;;;;;;;1999.90;999.90;;;1.70;99.90;;;;;;6247862;23;20027;-94
2021/01/14 07:25:47;;;;;;;1999.90;999.90;;;1.70;99.90;;;;;;6247546;23;20023;-95
2021/01/14 07:28:17;;;;;;;1999.90;999.90;;;1.80;99.90;;;;;;6247212;23;20016;-95
2021/01/14 07:30:52;;;;;;;1999.90;999.90;;;1.80;99.90;;;;;;6247356;23;20047;-96
2021/01/14 07:33:33;;;;;;;1999.90;999.90;;;1.80;99.90;;;;;;6247339;23;20020;-95
2021/01/14 07:36:21;;;;;;;1999.90;999.90;;;1.80;99.90;;;;;;6248769;23;20099;-95
2021/01/14 07:38:55;;;;;;;1999.90;999.90;;;1.80;99.90;;;;;;6247964;23;20013;-95
2021/01/14 07:41:24;;;;;;;1999.90;999.90;;;1.80;99.90;;;;;;6249217;23;20020;-95
2021/01/14 07:44:00;;;;;;;1999.90;999.90;;;1.80;99.90;;;;;;6254027;23;20142;-95
2021/01/14 07:46:29;;;;;;;1999.90;999.90;;;1.80;99.90;;;;;;6247340;23;20463;-95
2021/01/14 07:48:57;;;;;;;1999.90;999.90;;;1.80;99.90;;;;;;6248287;23;20016;-95
2021/01/14 07:51:47;;;;;;;1999.90;999.90;;;1.80;99.90;;;;;;6247795;23;20027;-96
2021/01/14 07:54:14;;;;;;;1999.90;999.90;;;1.90;99.90;;;;;;6246828;23;20050;-95
2021/01/14 07:56:50;;;;;;;1999.90;999.90;;;1.80;99.90;;;;;;6248974;23;20056;-95
2021/01/14 07:59:28;;;;;;;1999.90;999.90;;;1.80;99.90;;;;;;6248884;23;20020;-95
2021/01/14 08:02:07;;;;;;;1999.90;999.90;;;1.90;99.90;;;;;;6249094;23;20131;-94
2021/01/14 08:09:12;;;;;;;1999.90;999.90;;;1.90;99.90;;;;;;6157013;23;20028;-96
2021/01/14 08:12:01;;;;;;;1999.90;999.90;;;1.90;99.90;;;;;;6156083;23;20029;-96
2021/01/14 08:14:51;;;;;;;1999.90;999.90;;;1.90;99.90;;;;;;6157327;23;20068;-96
2021/01/14 08:17:26;;;;;;;1999.90;999.90;;;1.90;99.90;;;;;;6157212;23;20018;-95
2021/01/14 08:20:01;;;;;;;1999.90;999.90;;;1.90;99.90;;;;;;6156367;23;20018;-96
2021/01/14 08:22:48;;;;;;;1999.90;999.90;;;1.90;99.90;;;;;;6156461;23;20025;-95
2021/01/14 08:25:16;;;;;;;1999.90;999.90;;;1.90;99.90;;;;;;6155896;23;20076;-94
2021/01/14 08:28:02;;;;;;;1999.90;999.90;;;1.90;99.90;;;;;;6156118;23;20445;-95
2021/01/14 08:30:56;;;;;;;1999.90;999.90;;;2.00;99.90;;;;;;6155711;23;20055;-95
2021/01/14 08:33:26;;;;;;;1999.90;999.90;;;2.00;99.90;;;;;;6155636;23;20021;-95
2021/01/14 08:36:12;;;;;;;1999.90;999.90;;;1.90;99.90;;;;;;6156479;23;20076;-95
2021/01/14 08:38:46;;;;;;;1999.90;999.90;;;2.00;99.90;;;;;;6216093;23;20062;-95
2021/01/14 08:41:28;;;;;;;1999.90;999.90;;;2.00;99.90;;;;;;6249184;23;20312;-95
2021/01/14 08:44:02;;;;;;;1999.90;999.90;;;2.00;99.90;;;;;;6248474;23;20023;-96
2021/01/14 08:46:45;;;;;;;1999.90;999.90;;;2.00;99.90;;;;;;6248206;23;20036;-96
2021/01/14 08:49:13;;;;;;;1999.90;999.90;;;2.10;99.90;;;;;;6248182;23;20051;-95
2021/01/14 08:51:42;;;;;;;1999.90;999.90;;;2.10;99.90;;;;;;6249236;23;20102;-96
2021/01/14 08:54:10;;;;;;;1999.90;999.90;;;2.10;99.90;;;;;;6248550;23;20020;-95
2021/01/14 08:57:03;;;;;;;1999.90;999.90;;;2.20;99.90;;;;;;6247728;23;20031;-96
2021/01/14 08:59:31;;;;;;;1999.90;999.90;;;2.10;99.90;;;;;;6248095;23;20022;-96
2021/01/14 09:01:59;;;;;;;1999.90;999.90;;;2.10;99.90;;;;;;6248872;23;20078;-95
2021/01/14 09:04:26;;;;;;;1999.90;999.90;;;2.20;99.90;;;;;;6248433;23;20020;-96
2021/01/14 09:06:55;;;;;;;1999.90;999.90;;;2.20;99.90;;;;;;6248749;23;20023;-96
2021/01/14 09:09:23;;;;;;;1999.90;999.90;;;2.20;99.90;;;;;;6248387;23;20023;-96
2021/01/14 09:11:50;;;;;;;1999.90;999.90;;;2.20;99.90;;;;;;6248016;23;20024;-96
2021/01/14 09:14:18;;;;;;;1999.90;999.90;;;2.30;99.90;;;;;;6248209;23;20020;-96
2021/01/14 09:16:49;;;;;;;1999.90;999.90;;;2.20;99.90;;;;;;6248184;23;20455;-95
2021/01/14 09:19:27;;;;;;;1999.90;999.90;;;2.30;99.90;;;;;;6248443;23;20339;-95
2021/01/14 09:22:58;;;;;;;1999.90;999.90;;;2.30;99.90;;;;;;6241981;23;20087;-96
2021/01/14 09:25:41;;;;;;;1999.90;999.90;;;2.30;99.90;;;;;;6266201;23;20027;-95
2021/01/14 10:04:56;;;;;;;1999.90;999.90;;;2.40;99.90;;;;;;6334959;22;20014;-96
2021/01/14 10:20:16;;;;;;;1999.90;999.90;;;2.40;99.90;;;;;;6322046;22;20517;-96
2021/01/14 10:22:49;;;;;;;1999.90;999.90;;;2.40;99.90;;;;;;6318538;22;20019;-95
2021/01/14 10:25:51;;;;;;;1999.90;999.90;;;2.40;99.90;;;;;;6320092;22;20019;-96
2021/01/14 10:28:28;;;;;;;1999.90;999.90;;;2.40;99.90;;;;;;6259583;23;20027;-96
2021/01/14 10:35:23;;;;;;;1999.90;999.90;;;2.40;99.90;;;;;;6318889;22;20456;-95
2021/01/14 10:38:19;;;;;;;1999.90;999.90;;;2.40;99.90;;;;;;6317645;22;20015;-94
2021/01/14 10:41:40;;;;;;;1999.90;999.90;;;2.40;99.90;;;;;;6325319;22;20019;-94
2021/01/14 10:44:58;;;;;;;1999.90;999.90;;;2.50;99.90;;;;;;6331057;22;20066;-96
2021/01/14 10:51:04;;;;;;;1999.90;999.90;;;2.50;99.90;;;;;;6261004;22;20020;-96
2021/01/14 10:53:45;;;;;;;1999.90;999.90;;;2.50;99.90;;;;;;6284996;22;20066;-96
2021/01/14 10:56:20;;;;;;;1999.90;999.90;;;2.50;99.90;;;;;;6284589;22;20312;-95
2021/01/14 10:58:55;;;;;;;1999.90;999.90;;;2.50;99.90;;;;;;6288193;22;20019;-96
2021/01/14 11:01:46;;;;;;;1999.90;999.90;;;2.50;99.90;;;;;;6281026;22;20049;-96
2021/01/14 11:04:16;;;;;;;;;;;2.50;99.90;;;;;;6285903;22;20419;-95
2021/01/14 11:06:44;;;;;;;1999.90;999.90;;;2.50;99.90;;;;;;6280409;22;19937;-95
2021/01/14 11:09:15;;;;;;;1999.90;999.90;;;2.40;99.90;;;;;;6282787;22;20085;-93
2021/01/14 11:11:44;;;;;;;1999.90;999.90;;;2.40;99.90;;;;;;6282006;22;20027;-94
2021/01/14 11:14:27;;;;;;;1999.90;999.90;;;2.40;99.90;;;;;;6283277;22;20046;-96
2021/01/14 11:20:58;;;;;;;1999.90;999.90;;;2.50;99.90;;;;;;6289426;22;20079;-96
2021/01/14 11:23:45;;;;;;;;;;;;;;;;;;;;;
2021/01/14 11:26:21;;;;;;;1999.90;999.90;;;2.50;99.90;;;;;;6292040;22;20315;-96
2021/01/14 11:28:51;;;;;;;1999.90;999.90;;;2.50;99.90;;;;;;6254769;23;20091;-96
2021/01/14 11:31:26;;;;;;;1999.90;999.90;;;2.50;99.90;;;;;;6258406;22;20077;-96
2021/01/14 11:33:55;;;;;;;1999.90;999.90;;;2.50;99.90;;;;;;6286466;22;20066;-96
2021/01/14 11:36:23;;;;;;;1999.90;999.90;;;2.50;99.90;;;;;;6283474;22;20022;-96
2021/01/14 11:38:53;;;;;;;1999.90;999.90;;;2.50;99.90;;;;;;6279961;22;20023;-96
2021/01/14 11:41:22;;;;;;;1999.90;999.90;;;2.50;99.90;;;;;;6285887;22;20028;-95
2021/01/14 11:43:55;;;;;;;1999.90;999.90;;;2.60;99.90;;;;;;6281837;22;20143;-96
2021/01/14 11:49:34;;;;;;;1999.90;999.90;;;2.60;99.90;;;;;;6283915;22;20078;-95
2021/01/14 11:52:18;;;;;;;1999.90;999.90;;;2.60;99.90;;;;;;6290870;22;20046;-96
2021/01/14 11:54:54;;;;;;;1999.90;999.90;;;2.60;99.90;;;;;;6293273;22;20015;-96
2021/01/14 11:57:50;;;;;;;1999.90;999.90;;;2.70;99.90;;;;;;6291907;22;20095;-96
2021/01/14 12:00:52;;;;;;;;;;;;;;;;;;;;;
2021/01/14 12:31:09;;;;;;;1999.90;999.90;;;2.70;99.90;;;;;;6240946;22;20085;-96
2021/01/14 12:33:37;;;;;;;;;;;2.70;99.90;;;;;;6283312;22;20035;-95
2021/01/14 13:07:48;;;;;;;1999.90;999.90;;;2.70;99.90;;;;;;6229821;23;19912;-95
2021/01/14 13:14:46;;;;;;;1999.90;999.90;;;2.70;99.90;;;;;;6156765;23;20024;-93
2021/01/14 13:17:18;;;;;;;1999.90;999.90;;;2.60;99.90;;;;;;6169244;23;20492;-92
2021/01/14 13:19:46;;;;;;;1999.90;999.90;;;2.60;99.90;;;;;;6246393;23;20039;-92
2021/01/14 13:22:28;;;;;;;1999.90;999.90;;;2.60;99.90;;;;;;6246889;23;20020;-94
2021/01/14 13:36:47;;;;;;;1999.90;999.90;;;2.60;99.90;;;;;;6065109;23;20034;-95
2021/01/14 13:39:45;;;;;;;1999.90;999.90;;;2.60;99.90;;;;;;6098666;23;20449;-95
2021/01/14 13:42:34;;;;;;;1999.90;999.90;;;2.60;99.90;;;;;;6104399;23;20028;-91
2021/01/14 13:45:13;;;;;;;1999.90;999.90;;;2.60;99.90;;;;;;6246302;23;20020;-93
2021/01/14 13:48:17;;;;;;;1999.90;999.90;;;2.60;99.90;;;;;;6246854;23;20012;-92
2021/01/14 13:50:58;;;;;;;1999.90;999.90;;;2.60;99.90;;;;;;6228270;23;20016;-92
2021/01/14 13:53:30;;;;;;;1999.90;999.90;;;2.60;99.90;;;;;;6246193;23;20024;-91
2021/01/14 13:56:03;;;;;;;1999.90;999.90;;;2.60;99.90;;;;;;6245612;23;20046;-92
2021/01/14 13:58:43;;;;;;;1999.90;999.90;;;2.60;99.90;;;;;;6245476;23;20027;-93
2021/01/14 14:01:17;;;;;;;1999.90;999.90;;;2.60;99.90;;;;;;6245400;23;20119;-92
2021/01/14 14:03:54;;;;;;;1999.90;999.90;;;2.60;99.90;;;;;;6245691;23;20043;-92
2021/01/14 14:06:51;;;;;;;1999.90;999.90;;;2.70;99.90;;;;;;6246063;23;20305;-92
2021/01/14 14:09:59;;;;;;;1999.90;999.90;;;2.70;99.90;;;;;;6245789;23;20024;-94
2021/01/14 14:20:06;;;;;;;1999.90;999.90;;;2.70;99.90;;;;;;6102029;23;20060;-96
2021/01/14 14:22:59;;;;;;;1999.90;999.90;;;2.70;99.90;;;;;;6099665;23;20077;-96
2021/01/14 14:25:28;;;;;;;1999.90;999.90;;;2.80;99.90;;;;;;6103717;23;20386;-95
2021/01/14 14:28:01;;;;;;;1999.90;999.90;;;2.80;99.90;;;;;;6152447;23;20536;-96
2021/01/14 14:30:29;;;;;;;1999.90;999.90;;;2.80;99.90;;;;;;6158820;23;20037;-95
2021/01/14 14:33:13;;;;;;;;;;;;;;;;;;;;;
2021/01/14 14:36:31;;;;;;;1999.90;999.90;;;2.80;99.90;;;;;;6155634;23;20057;-95
2021/01/14 14:39:25;;;;;;;1999.90;999.90;;;2.80;99.90;;;;;;6156185;23;20100;-96
2021/01/14 14:41:53;;;;;;;1999.90;999.90;;;2.80;99.90;;;;;;6156973;23;20053;-96
2021/01/14 14:44:20;;;;;;;1999.90;999.90;;;2.80;99.90;;;;;;6156866;23;20045;-95
2021/01/14 14:46:58;;;;;;;1999.90;999.90;;;2.80;99.90;;;;;;6156715;23;20018;-95
2021/01/14 14:49:50;;;;;;;1999.90;999.90;;;2.80;99.90;;;;;;6157130;23;20445;-95
2021/01/14 14:52:21;;;;;;;1999.90;999.90;;;2.70;99.90;;;;;;6195173;23;20027;-96
2021/01/14 14:55:50;;;;;;;1999.90;999.90;;;2.80;99.90;;;;;;6250543;23;20031;-96
2021/01/14 15:18:01;;;;;;;1999.90;999.90;;;2.70;99.90;;;;;;6230733;22;20031;-96
2021/01/14 15:20:44;;;;;;;1999.90;999.90;;;2.70;99.90;;;;;;6279964;22;20026;-96
2021/01/14 15:26:39;;;;;;;;;;;;;;;;;;;;;
2021/01/14 15:36:55;;;;;;;1999.90;999.90;;;2.70;99.90;;;;;;6254206;22;20019;-95
2021/01/14 15:39:41;;;;;;;1999.90;999.90;;;2.60;99.90;;;;;;6278862;22;20019;-96
2021/01/14 15:42:19;;;;;;;1999.90;999.90;;;2.70;99.90;;;;;;6279363;22;20443;-96
2021/01/14 15:44:53;;;;;;;1999.90;999.90;;;2.70;99.90;;;;;;6281724;22;20023;-95
2021/01/14 15:50:18;;;;;;;1999.90;999.90;;;2.70;99.90;;;;;;6268730;22;20252;-95
2021/01/14 15:52:51;;;;;;;1999.90;999.90;;;2.70;99.90;;;;;;6282323;22;20094;-95
2021/01/14 15:55:45;;;;;;;1999.90;999.90;;;2.60;99.90;;;;;;6279755;22;20016;-94
2021/01/14 16:20:29;;;;;;;1999.90;999.90;;;2.50;99.90;;;;;;6176357;22;20129;-96
2021/01/14 16:26:08;;;;;;;1999.90;999.90;;;2.50;99.90;;;;;;6287715;22;20094;-95
2021/01/14 16:28:40;;;;;;;1999.90;999.90;;;2.50;99.90;;;;;;6287516;22;20028;-96
2021/01/14 16:31:07;;;;;;;1999.90;999.90;;;2.50;99.90;;;;;;6285611;22;20027;-96
2021/01/14 16:33:35;;;;;;;1999.90;999.90;;;2.40;99.90;;;;;;6283856;22;20023;-96
2021/01/14 16:36:11;;;;;;;1999.90;999.90;;;2.50;99.90;;;;;;6280501;22;20039;-96
2021/01/14 16:39:13;;;;;;;1999.90;999.90;;;2.50;99.90;;;;;;6280583;22;20399;-96
2021/01/14 16:45:22;;;;;;;1999.90;999.90;;;2.50;99.90;;;;;;6274499;22;20026;-96
2021/01/14 16:47:56;;;;;;;1999.90;999.90;;;2.40;99.90;;;;;;6283765;22;20423;-96
2021/01/14 16:50:25;;;;;;;1999.90;999.90;;;2.50;99.90;;;;;;6283824;22;20020;-96
2021/01/14 16:52:53;;;;;;;1999.90;999.90;;;2.40;99.90;;;;;;6284266;22;20015;-96
2021/01/14 16:55:23;;;;;;;1999.90;999.90;;;2.40;99.90;;;;;;6282407;22;20052;-95
2021/01/14 16:57:53;;;;;;;1999.90;999.90;;;2.40;99.90;;;;;;6288705;22;20016;-96
2021/01/14 17:00:21;;;;;;;1999.90;999.90;;;2.40;99.90;;;;;;6287217;22;20030;-96
2021/01/14 17:02:54;;;;;;;1999.90;999.90;;;2.40;99.90;;;;;;6287751;22;20077;-96
2021/01/14 17:05:21;;;;;;;1999.90;999.90;;;2.40;99.90;;;;;;6286070;22;20073;-92
2021/01/14 17:14:32;;;;;;;1999.90;999.90;;;2.30;99.90;;;;;;6155522;23;20022;-95
2021/01/14 17:17:08;;;;;;;1999.90;999.90;;;2.30;99.90;;;;;;6096479;23;20026;-95
2021/01/14 17:19:40;;;;;;;1999.90;999.90;;;2.30;99.90;;;;;;6125015;23;20476;-95
2021/01/14 17:26:00;;;;;;;1999.90;999.90;;;2.30;99.90;;;;;;6029725;23;20082;-94
2021/01/14 17:28:28;;;;;;;1999.90;999.90;;;2.20;99.90;;;;;;6110215;23;20096;-95
2021/01/14 17:30:55;;;;;;;1999.90;999.90;;;2.20;99.90;;;;;;6176853;23;20365;-94
2021/01/14 17:33:23;;;;;;;1999.90;999.90;;;2.20;99.90;;;;;;6219455;23;20043;-95
2021/01/14 17:35:52;;;;;;;1999.90;999.90;;;2.20;99.90;;;;;;6217656;23;20056;-95
2021/01/14 17:38:35;;;;;;;1999.90;999.90;;;2.20;99.90;;;;;;6218612;23;20023;-94
2021/01/14 17:41:26;;;;;;;1999.90;999.90;;;2.20;99.90;;;;;;6213126;22;20027;-94
2021/01/14 17:43:54;;;;;;;1999.90;999.90;;;2.20;99.90;;;;;;6217426;22;20021;-94
2021/01/14 17:46:22;;;;;;;1999.90;999.90;;;2.20;99.90;;;;;;6217427;23;20036;-93
2021/01/14 17:48:51;;;;;;;1999.90;999.90;;;2.20;99.90;;;;;;6217210;22;20043;-94
2021/01/14 17:51:20;;;;;;;1999.90;999.90;;;2.20;99.90;;;;;;6217638;23;20023;-94
2021/01/14 17:53:49;;;;;;;1999.90;999.90;;;2.20;99.90;;;;;;6216965;23;20040;-94
2021/01/14 17:56:17;;;;;;;1999.90;999.90;;;2.20;99.90;;;;;;6218511;23;20020;-93
2021/01/14 17:58:52;;;;;;;1999.90;999.90;;;2.20;99.90;;;;;;6219066;23;20016;-94
2021/01/14 18:01:19;;;;;;;1999.90;999.90;;;2.20;99.90;;;;;;6220109;23;20017;-95
2021/01/14 18:03:50;;;;;;;1999.90;999.90;;;2.10;99.90;;;;;;6219871;23;20020;-95
2021/01/14 18:06:31;;;;;;;1999.90;999.90;;;2.10;99.90;;;;;;6219380;23;20045;-94
2021/01/14 18:09:00;;;;;;;1999.90;999.90;;;2.10;99.90;;;;;;6220385;23;20016;-94
2021/01/14 18:11:28;;;;;;;1999.90;999.90;;;2.00;99.90;;;;;;6219575;23;20028;-94
2021/01/14 18:13:59;;;;;;;1999.90;999.90;;;2.00;99.90;;;;;;6219928;23;20028;-94
2021/01/14 18:16:33;;;;;;;;;;;1.90;99.90;;;;;;6257501;22;20023;-94
2021/01/14 18:22:40;;;;;;;1999.90;999.90;;;2.00;99.90;;;;;;6280958;22;20019;-94
2021/01/14 18:25:24;;;;;;;;;;;;;;;;;;;;;
2021/01/14 18:28:03;;;;;;;1999.90;999.90;;;1.90;99.90;;;;;;6280941;22;20478;-94
2021/01/14 18:30:33;;;;;;;1999.90;999.90;;;1.90;99.90;;;;;;6281615;22;20016;-95
2021/01/14 18:33:04;;;;;;;1999.90;999.90;;;1.90;99.90;;;;;;6281210;22;20019;-94
2021/01/14 18:35:38;;;;;;;1999.90;999.90;;;1.90;99.90;;;;;;6280154;22;20091;-94
2021/01/14 18:38:14;;;;;;;1999.90;999.90;;;1.80;99.90;;;;;;6280409;22;20012;-93
2021/01/14 18:40:44;;;;;;;1999.90;999.90;;;1.80;99.90;;;;;;6280755;22;20022;-94
2021/01/14 18:43:16;;;;;;;1999.90;999.90;;;1.80;99.90;;;;;;6279832;22;20026;-93
2021/01/14 18:45:53;;;;;;;1999.90;999.90;;;1.80;99.90;;;;;;6280695;22;20020;-93
2021/01/14 18:48:29;;;;;;;1999.90;999.90;;;1.80;99.90;;;;;;6280387;22;20019;-94